createdAt,value
2019-02-12T00:00:31.185Z,2.45
2019-02-12T00:01:31.180Z,2.49
2019-02-12T00:02:31.161Z,2.46
2019-02-12T00:03:31.161Z,2.52
2019-02-12T00:04:31.143Z,2.44
2019-02-12T00:05:31.130Z,2.51
2019-02-12T00:06:31.124Z,2.48
2019-02-12T00:07:31.108Z,2.49
2019-02-12T00:08:31.111Z,2.46
2019-02-12T00:09:31.087Z,2.46
2019-02-12T00:10:31.079Z,2.44
2019-02-12T00:11:31.064Z,2.46
2019-02-12T00:12:31.054Z,2.44
2019-02-12T00:13:31.056Z,2.49
2019-02-12T00:14:31.037Z,2.41
2019-02-12T00:15:31.021Z,2.51
2019-02-12T00:16:31.010Z,2.49
2019-02-12T00:17:31.000Z,2.51
2019-02-12T00:18:30.999Z,2.59
2019-02-12T00:19:30.980Z,2.51
2019-02-12T00:20:30.974Z,2.53
2019-02-12T00:21:30.955Z,2.51
2019-02-12T00:22:30.945Z,2.58
2019-02-12T00:23:30.945Z,2.53
2019-02-12T00:24:30.924Z,2.52
2019-02-12T00:25:30.918Z,2.53
2019-02-12T00:26:30.903Z,2.55
2019-02-12T00:27:30.891Z,2.51
2019-02-12T00:28:30.913Z,2.59
2019-02-12T00:29:30.870Z,2.51
2019-02-12T00:30:30.864Z,2.51
2019-02-12T00:31:30.863Z,2.58
2019-02-12T00:32:30.838Z,2.55
2019-02-12T00:33:30.828Z,2.55
2019-02-12T00:34:30.824Z,2.51
2019-02-12T00:35:30.805Z,2.48
2019-02-12T00:36:30.795Z,2.51
2019-02-12T00:37:30.786Z,2.44
2019-02-12T00:38:30.775Z,2.51
2019-02-12T00:39:30.771Z,2.53
2019-02-12T00:40:30.751Z,2.48
2019-02-12T00:41:30.743Z,2.46
2019-02-12T00:42:30.729Z,2.51
2019-02-12T00:43:30.721Z,2.58
2019-02-12T00:44:30.717Z,2.55
2019-02-12T00:45:30.698Z,2.48
2019-02-12T00:46:30.686Z,2.59
2019-02-12T00:47:30.676Z,2.61
2019-02-12T00:48:30.665Z,2.49
2019-02-12T00:49:30.664Z,2.53
2019-02-12T00:50:30.643Z,2.53
2019-02-12T00:51:30.633Z,2.48
2019-02-12T00:52:30.623Z,2.45
2019-02-12T00:53:30.612Z,2.49
2019-02-12T00:54:30.612Z,2.49
2019-02-12T00:55:30.591Z,2.46
2019-02-12T00:56:30.582Z,2.53
2019-02-12T00:57:30.567Z,2.49
2019-02-12T00:58:30.557Z,2.45
2019-02-12T00:59:30.555Z,2.37
2019-02-12T01:00:30.536Z,2.45
2019-02-12T01:01:30.525Z,2.44
2019-02-12T01:02:30.517Z,2.45
2019-02-12T01:03:30.503Z,2.38
2019-02-12T01:04:30.504Z,2.44
2019-02-12T01:05:30.483Z,2.48
2019-02-12T01:06:30.472Z,2.41
2019-02-12T01:07:30.462Z,2.45
2019-02-12T01:08:30.451Z,2.40
2019-02-12T01:09:30.451Z,2.45
2019-02-12T01:10:30.428Z,2.41
2019-02-12T01:11:30.418Z,2.38
2019-02-12T01:12:30.409Z,2.34
2019-02-12T01:13:30.395Z,2.41
2019-02-12T01:14:30.395Z,2.40
2019-02-12T01:15:30.375Z,2.31
2019-02-12T01:16:30.364Z,2.40
2019-02-12T01:17:30.355Z,2.34
2019-02-12T01:18:30.346Z,2.37
2019-02-12T01:19:30.341Z,2.33
2019-02-12T01:20:30.320Z,2.34
2019-02-12T01:21:30.312Z,2.30
2019-02-12T01:22:30.299Z,2.38
2019-02-12T01:23:30.302Z,2.33
2019-02-12T01:24:30.289Z,2.35
2019-02-12T01:25:30.269Z,2.38
2019-02-12T01:26:30.260Z,2.37
2019-02-12T01:27:30.250Z,2.33
2019-02-12T01:28:30.240Z,2.33
2019-02-12T01:29:30.236Z,2.33
2019-02-12T01:30:30.215Z,2.37
2019-02-12T01:31:30.203Z,2.41
2019-02-12T01:32:30.194Z,2.34
2019-02-12T01:33:30.183Z,2.28
2019-02-12T01:34:30.183Z,2.31
2019-02-12T01:35:30.161Z,2.22
2019-02-12T01:36:30.150Z,2.34
2019-02-12T01:37:30.142Z,2.34
2019-02-12T01:38:30.129Z,2.28
2019-02-12T01:39:30.128Z,2.33
2019-02-12T01:40:30.106Z,2.23
2019-02-12T01:41:30.098Z,2.26
2019-02-12T01:42:30.086Z,2.33
2019-02-12T01:43:30.075Z,2.38
2019-02-12T01:44:30.072Z,2.23
2019-02-12T01:45:30.053Z,2.28
2019-02-12T01:46:30.043Z,2.44
2019-02-12T01:47:30.051Z,2.35
2019-02-12T01:48:30.021Z,2.35
2019-02-12T01:49:30.040Z,2.40
2019-02-12T01:50:29.999Z,2.28
2019-02-12T01:51:35.150Z,2.31
2019-02-12T01:52:30.980Z,2.46
2019-02-12T01:53:29.983Z,2.41
2019-02-12T01:54:29.955Z,2.37
2019-02-12T01:55:29.954Z,2.44
2019-02-12T01:56:29.934Z,2.41
2019-02-12T01:57:29.925Z,2.37
2019-02-12T01:58:29.912Z,2.38
2019-02-12T01:59:29.904Z,2.44
2019-02-12T02:00:29.902Z,2.48
2019-02-12T02:01:29.881Z,2.41
2019-02-12T02:02:29.873Z,2.44
2019-02-12T02:03:29.861Z,2.44
2019-02-12T02:04:29.852Z,2.38
2019-02-12T02:05:29.851Z,2.45
2019-02-12T02:06:29.827Z,2.40
2019-02-12T02:07:29.817Z,2.51
2019-02-12T02:08:29.806Z,2.46
2019-02-12T02:09:29.794Z,2.45
2019-02-12T02:10:29.795Z,2.44
2019-02-12T02:11:29.773Z,2.38
2019-02-12T02:12:29.761Z,2.40
2019-02-12T02:13:29.750Z,2.35
2019-02-12T02:14:29.744Z,2.34
2019-02-12T02:15:29.744Z,2.37
2019-02-12T02:16:29.724Z,2.34
2019-02-12T02:17:29.708Z,2.41
2019-02-12T02:18:29.698Z,2.40
2019-02-12T02:19:29.686Z,2.46
2019-02-12T02:20:29.685Z,2.35
2019-02-12T02:21:29.665Z,2.37
2019-02-12T02:22:29.664Z,2.37
2019-02-12T02:23:29.644Z,2.41
2019-02-12T02:24:29.634Z,2.41
2019-02-12T02:25:29.630Z,2.41
2019-02-12T02:26:29.613Z,2.34
2019-02-12T02:27:29.610Z,2.38
2019-02-12T02:28:29.591Z,2.41
2019-02-12T02:29:29.580Z,2.46
2019-02-12T02:30:29.585Z,2.41
2019-02-12T02:31:29.559Z,2.38
2019-02-12T02:32:29.554Z,2.41
2019-02-12T02:33:29.545Z,2.35
2019-02-12T02:34:29.528Z,2.37
2019-02-12T02:35:29.527Z,2.44
2019-02-12T02:36:29.508Z,2.41
2019-02-12T02:37:29.495Z,2.41
2019-02-12T02:38:29.485Z,2.35
2019-02-12T02:39:29.474Z,2.27
2019-02-12T02:40:29.484Z,2.35
2019-02-12T02:41:29.454Z,2.41
2019-02-12T02:42:29.481Z,2.46
2019-02-12T02:43:29.431Z,2.34
2019-02-12T02:44:29.420Z,2.38
2019-02-12T02:45:29.431Z,2.38
2019-02-12T02:46:29.404Z,2.31
2019-02-12T02:47:29.390Z,2.31
2019-02-12T02:48:29.380Z,2.38
2019-02-12T02:49:29.370Z,2.30
2019-02-12T02:50:29.371Z,2.30
2019-02-12T02:51:29.348Z,2.38
2019-02-12T02:52:29.336Z,2.44
2019-02-12T02:53:29.326Z,2.34
2019-02-12T02:54:29.318Z,2.45
2019-02-12T02:55:29.322Z,2.28
2019-02-12T02:56:29.293Z,2.40
2019-02-12T02:57:29.290Z,2.34
2019-02-12T02:58:29.270Z,2.31
2019-02-12T02:59:29.263Z,2.23
2019-02-12T03:00:29.259Z,2.30
2019-02-12T03:01:29.297Z,2.35
2019-02-12T03:02:29.231Z,2.33
2019-02-12T03:03:29.217Z,2.35
2019-02-12T03:04:29.208Z,2.34
2019-02-12T03:05:29.202Z,2.35
2019-02-12T03:06:29.185Z,2.38
2019-02-12T03:07:29.177Z,2.37
2019-02-12T03:08:29.164Z,2.34
2019-02-12T03:09:29.153Z,2.35
2019-02-12T03:10:29.170Z,2.38
2019-02-12T03:11:29.131Z,2.46
2019-02-12T03:12:29.123Z,2.23
2019-02-12T03:13:29.116Z,2.31
2019-02-12T03:14:29.099Z,2.30
2019-02-12T03:15:29.088Z,2.46
2019-02-12T03:16:29.087Z,2.40
2019-02-12T03:17:29.066Z,2.37
2019-02-12T03:18:29.057Z,2.37
2019-02-12T03:19:29.046Z,2.48
2019-02-12T03:20:29.036Z,2.35
2019-02-12T03:21:29.034Z,2.44
2019-02-12T03:22:29.015Z,2.31
2019-02-12T03:23:29.003Z,2.41
2019-02-12T03:24:29.034Z,2.44
2019-02-12T03:25:28.981Z,2.35
2019-02-12T03:26:28.983Z,2.40
2019-02-12T03:27:28.960Z,2.44
2019-02-12T03:28:28.949Z,2.37
2019-02-12T03:29:28.939Z,2.33
2019-02-12T03:30:28.929Z,2.44
2019-02-12T03:31:28.926Z,2.37
2019-02-12T03:32:28.913Z,2.34
2019-02-12T03:33:28.901Z,2.37
2019-02-12T03:34:28.885Z,2.35
2019-02-12T03:35:28.874Z,2.34
2019-02-12T03:36:28.891Z,2.31
2019-02-12T03:37:28.855Z,2.30
2019-02-12T03:38:28.841Z,2.15
2019-02-12T03:39:28.831Z,2.15
2019-02-12T03:40:28.822Z,2.12
2019-02-12T03:41:28.818Z,2.19
2019-02-12T03:42:28.802Z,2.09
2019-02-12T03:43:28.792Z,2.10
2019-02-12T03:44:28.781Z,2.01
2019-02-12T03:45:28.770Z,1.97
2019-02-12T03:46:28.765Z,1.97
2019-02-12T03:47:28.747Z,1.99
2019-02-12T03:48:28.735Z,1.90
2019-02-12T03:49:28.724Z,1.94
2019-02-12T03:50:28.717Z,1.89
2019-02-12T03:51:28.715Z,1.85
2019-02-12T03:52:28.693Z,1.91
2019-02-12T03:53:28.684Z,1.80
2019-02-12T03:54:28.671Z,1.82
2019-02-12T03:55:28.661Z,1.82
2019-02-12T03:56:28.677Z,1.76
2019-02-12T03:57:28.642Z,1.76
2019-02-12T03:58:28.628Z,1.78
2019-02-12T03:59:28.617Z,1.76
2019-02-12T04:00:28.605Z,1.75
2019-02-12T04:01:28.603Z,1.80
2019-02-12T04:02:28.585Z,1.78
2019-02-12T04:03:28.575Z,1.73
2019-02-12T04:04:28.564Z,1.73
2019-02-12T04:05:28.551Z,1.75
2019-02-12T04:06:28.551Z,1.80
2019-02-12T04:07:28.534Z,1.72
2019-02-12T04:08:28.520Z,1.79
2019-02-12T04:09:28.508Z,1.73
2019-02-12T04:10:28.498Z,1.79
2019-02-12T04:11:28.500Z,1.76
2019-02-12T04:12:28.481Z,1.72
2019-02-12T04:13:28.466Z,1.80
2019-02-12T04:14:28.455Z,1.71
2019-02-12T04:15:28.446Z,1.72
2019-02-12T04:16:28.442Z,1.69
2019-02-12T04:17:28.428Z,1.72
2019-02-12T04:18:28.415Z,1.64
2019-02-12T04:19:28.403Z,1.62
2019-02-12T04:20:28.393Z,1.69
2019-02-12T04:21:28.390Z,1.61
2019-02-12T04:22:28.369Z,1.58
2019-02-12T04:23:28.358Z,1.57
2019-02-12T04:24:28.349Z,1.55
2019-02-12T04:25:28.339Z,1.71
2019-02-12T04:26:28.334Z,1.60
2019-02-12T04:27:28.315Z,1.69
2019-02-12T04:28:28.306Z,1.69
2019-02-12T04:29:28.293Z,1.64
2019-02-12T04:30:28.285Z,1.64
2019-02-12T04:31:28.298Z,1.54
2019-02-12T04:32:28.271Z,1.65
2019-02-12T04:33:28.250Z,1.64
2019-02-12T04:34:28.240Z,1.54
2019-02-12T04:35:28.230Z,1.65
2019-02-12T04:36:28.222Z,1.55
2019-02-12T04:37:28.215Z,1.57
2019-02-12T04:38:28.197Z,1.65
2019-02-12T04:39:28.186Z,1.68
2019-02-12T04:40:28.176Z,1.58
2019-02-12T04:41:28.171Z,1.65
2019-02-12T04:42:28.166Z,1.60
2019-02-12T04:43:28.143Z,1.60
2019-02-12T04:44:28.145Z,1.64
2019-02-12T04:45:28.124Z,1.55
2019-02-12T04:46:28.114Z,1.71
2019-02-12T04:47:28.108Z,1.62
2019-02-12T04:48:28.106Z,1.65
2019-02-12T04:49:28.079Z,1.65
2019-02-12T04:50:28.069Z,1.69
2019-02-12T04:51:28.059Z,1.65
2019-02-12T04:52:31.900Z,1.57
2019-02-12T04:53:28.036Z,1.71
2019-02-12T04:54:28.024Z,1.73
2019-02-12T04:55:28.017Z,1.76
2019-02-12T04:56:28.003Z,1.61
2019-02-12T04:57:28.417Z,1.64
2019-02-12T04:58:27.981Z,1.60
2019-02-12T04:59:27.979Z,1.60
2019-02-12T05:00:27.960Z,1.65
2019-02-12T05:01:27.950Z,1.62
2019-02-12T05:02:27.947Z,1.62
2019-02-12T05:03:27.928Z,1.61
2019-02-12T05:04:27.919Z,1.58
2019-02-12T05:05:27.913Z,1.54
2019-02-12T05:06:27.896Z,1.61
2019-02-12T05:07:27.894Z,1.62
2019-02-12T05:08:27.875Z,1.62
2019-02-12T05:09:27.863Z,1.54
2019-02-12T05:10:27.898Z,1.68
2019-02-12T05:11:27.841Z,1.61
2019-02-12T05:12:27.844Z,1.64
2019-02-12T05:13:27.820Z,1.60
2019-02-12T05:14:27.866Z,1.55
2019-02-12T05:15:27.802Z,1.71
2019-02-12T05:16:27.787Z,1.71
2019-02-12T05:17:27.790Z,1.68
2019-02-12T05:18:27.769Z,1.75
2019-02-12T05:19:27.756Z,1.65
2019-02-12T05:20:27.744Z,1.72
2019-02-12T05:21:27.736Z,1.64
2019-02-12T05:22:27.733Z,1.52
2019-02-12T05:23:27.715Z,1.55
2019-02-12T05:24:27.704Z,1.57
2019-02-12T05:25:27.691Z,1.57
2019-02-12T05:26:27.680Z,1.65
2019-02-12T05:27:27.689Z,1.71
2019-02-12T05:28:27.661Z,1.68
2019-02-12T05:29:27.648Z,1.71
2019-02-12T05:30:27.637Z,1.71
2019-02-12T05:31:27.627Z,1.65
2019-02-12T05:32:27.628Z,1.64
2019-02-12T05:33:27.608Z,1.71
2019-02-12T05:34:27.597Z,1.65
2019-02-12T05:35:27.586Z,1.62
2019-02-12T05:36:27.573Z,1.65
2019-02-12T05:37:27.570Z,1.72
2019-02-12T05:38:27.552Z,1.64
2019-02-12T05:39:27.541Z,1.64
2019-02-12T05:40:27.534Z,1.55
2019-02-12T05:41:27.535Z,1.69
2019-02-12T05:42:27.550Z,1.69
2019-02-12T05:43:27.498Z,1.71
2019-02-12T05:44:27.491Z,1.80
2019-02-12T05:45:27.484Z,1.69
2019-02-12T05:46:27.475Z,1.69
2019-02-12T05:47:27.456Z,1.60
2019-02-12T05:48:27.456Z,1.58
2019-02-12T05:49:27.433Z,1.69
2019-02-12T05:50:27.421Z,1.72
2019-02-12T05:51:27.411Z,1.64
2019-02-12T05:52:27.400Z,1.65
2019-02-12T05:53:27.397Z,1.68
2019-02-12T05:54:27.380Z,1.72
2019-02-12T05:55:27.367Z,1.71
2019-02-12T05:56:27.360Z,1.79
2019-02-12T05:57:27.359Z,1.75
2019-02-12T05:58:27.343Z,1.76
2019-02-12T05:59:27.325Z,1.72
2019-02-12T06:00:27.315Z,1.73
2019-02-12T06:01:27.308Z,1.78
2019-02-12T06:02:27.293Z,1.90
2019-02-12T06:03:27.289Z,1.91
2019-02-12T06:04:27.272Z,1.93
2019-02-12T06:05:27.265Z,1.98
2019-02-12T06:06:27.267Z,1.94
2019-02-12T06:07:27.238Z,1.85
2019-02-12T06:08:27.236Z,1.94
2019-02-12T06:09:27.222Z,1.97
2019-02-12T06:10:27.254Z,1.97
2019-02-12T06:11:27.602Z,2.02
2019-02-12T06:12:27.186Z,1.89
2019-02-12T06:13:27.186Z,1.99
2019-02-12T06:14:27.167Z,2.01
2019-02-12T06:15:27.152Z,1.91
2019-02-12T06:16:27.142Z,2.10
2019-02-12T06:17:27.133Z,1.94
2019-02-12T06:18:27.129Z,2.02
2019-02-12T06:19:27.115Z,2.08
2019-02-12T06:20:27.098Z,2.09
2019-02-12T06:21:27.089Z,2.16
2019-02-12T06:22:27.124Z,2.16
2019-02-12T06:23:27.075Z,2.08
2019-02-12T06:24:27.057Z,2.06
2019-02-12T06:25:27.045Z,2.19
2019-02-12T06:26:27.033Z,2.19
2019-02-12T06:27:27.023Z,2.19
2019-02-12T06:28:27.021Z,2.13
2019-02-12T06:29:27.003Z,2.20
2019-02-12T06:30:27.001Z,2.16
2019-02-12T06:31:26.983Z,2.13
2019-02-12T06:32:26.973Z,2.16
2019-02-12T06:33:26.967Z,2.20
2019-02-12T06:34:26.948Z,2.19
2019-02-12T06:35:26.937Z,2.23
2019-02-12T06:36:26.929Z,2.20
2019-02-12T06:37:26.918Z,2.23
2019-02-12T06:38:26.913Z,2.19
2019-02-12T06:39:26.895Z,2.16
2019-02-12T06:40:26.882Z,2.23
2019-02-12T06:41:26.872Z,2.26
2019-02-12T06:42:26.947Z,2.19
2019-02-12T06:43:26.861Z,2.22
2019-02-12T06:44:26.841Z,2.20
2019-02-12T06:45:26.834Z,2.16
2019-02-12T06:46:26.824Z,2.33
2019-02-12T06:47:26.807Z,2.23
2019-02-12T06:48:26.806Z,2.28
2019-02-12T06:49:26.787Z,2.31
2019-02-12T06:50:26.779Z,2.28
2019-02-12T06:51:26.764Z,2.27
2019-02-12T06:52:26.754Z,2.33
2019-02-12T06:53:26.752Z,2.38
2019-02-12T06:54:26.735Z,2.35
2019-02-12T06:55:26.730Z,2.37
2019-02-12T06:56:26.712Z,2.31
2019-02-12T06:57:26.699Z,2.33
2019-02-12T06:58:26.699Z,2.35
2019-02-12T06:59:26.679Z,2.35
2019-02-12T07:00:26.674Z,2.38
2019-02-12T07:01:26.658Z,2.41
2019-02-12T07:02:26.645Z,2.31
2019-02-12T07:03:26.667Z,2.44
2019-02-12T07:04:26.626Z,2.40
2019-02-12T07:05:26.616Z,2.41
2019-02-12T07:06:26.602Z,2.35
2019-02-12T07:07:26.595Z,2.41
2019-02-12T07:08:26.585Z,2.44
2019-02-12T07:09:26.579Z,2.44
2019-02-12T07:10:26.560Z,2.34
2019-02-12T07:11:26.552Z,2.41
2019-02-12T07:12:26.541Z,2.44
2019-02-12T07:13:26.532Z,2.38
2019-02-12T07:14:26.531Z,2.38
2019-02-12T07:15:26.506Z,2.49
2019-02-12T07:16:26.495Z,2.45
2019-02-12T07:17:26.490Z,2.46
2019-02-12T07:18:26.472Z,2.44
2019-02-12T07:19:26.476Z,2.44
2019-02-12T07:20:26.454Z,2.45
2019-02-12T07:21:26.444Z,2.44
2019-02-12T07:22:26.431Z,2.46
2019-02-12T07:23:26.425Z,2.44
2019-02-12T07:24:26.425Z,2.38
2019-02-12T07:25:26.399Z,2.38
2019-02-12T07:26:26.388Z,2.45
2019-02-12T07:27:26.377Z,2.45
2019-02-12T07:28:26.367Z,2.41
2019-02-12T07:29:26.368Z,2.40
2019-02-12T07:30:26.345Z,2.48
2019-02-12T07:31:26.335Z,2.53
2019-02-12T07:32:26.327Z,2.45
2019-02-12T07:33:26.314Z,2.55
2019-02-12T07:34:26.320Z,2.55
2019-02-12T07:35:26.298Z,2.58
2019-02-12T07:36:26.286Z,2.46
2019-02-12T07:37:26.276Z,2.52
2019-02-12T07:38:26.265Z,2.59
2019-02-12T07:39:26.260Z,2.52
2019-02-12T07:40:26.242Z,2.66
2019-02-12T07:41:26.229Z,2.98
2019-02-12T07:42:27.020Z,3.36
2019-02-12T07:43:26.207Z,3.85
2019-02-12T07:44:26.241Z,4.37
2019-02-12T07:45:26.188Z,4.67
2019-02-12T07:46:26.179Z,4.73
2019-02-12T07:47:26.167Z,4.64
2019-02-12T07:48:26.162Z,4.37
2019-02-12T07:49:26.144Z,4.24
2019-02-12T07:50:26.143Z,3.96
2019-02-12T07:51:26.123Z,3.68
2019-02-12T07:52:26.115Z,3.62
2019-02-12T07:53:31.183Z,3.39
2019-02-12T07:54:27.094Z,3.31
2019-02-12T07:55:26.090Z,3.24
2019-02-12T07:56:26.069Z,3.10
2019-02-12T07:57:26.059Z,3.03
2019-02-12T07:58:26.052Z,3.06
2019-02-12T07:59:26.052Z,2.87
2019-02-12T08:00:26.041Z,2.94
2019-02-12T08:01:26.016Z,2.98
2019-02-12T08:02:26.009Z,2.94
2019-02-12T08:03:25.995Z,2.95
2019-02-12T08:04:25.985Z,3.05
2019-02-12T08:05:25.983Z,3.05
2019-02-12T08:06:25.966Z,3.07
2019-02-12T08:07:25.972Z,3.07
2019-02-12T08:08:25.974Z,3.00
2019-02-12T08:09:25.932Z,3.02
2019-02-12T08:10:25.929Z,3.07
2019-02-12T08:11:25.912Z,3.12
2019-02-12T08:12:25.905Z,3.18
2019-02-12T08:13:25.888Z,3.09
2019-02-12T08:14:25.883Z,3.18
2019-02-12T08:15:25.885Z,3.12
2019-02-12T08:16:25.856Z,3.15
2019-02-12T08:17:25.848Z,3.16
2019-02-12T08:18:25.840Z,3.24
2019-02-12T08:19:25.825Z,3.16
2019-02-12T08:20:25.823Z,3.15
2019-02-12T08:21:25.802Z,3.13
2019-02-12T08:22:25.792Z,3.16
2019-02-12T08:23:25.789Z,3.09
2019-02-12T08:24:25.771Z,3.07
2019-02-12T08:25:25.769Z,3.09
2019-02-12T08:26:25.759Z,3.12
2019-02-12T08:27:26.431Z,3.00
2019-02-12T08:28:25.731Z,3.07
2019-02-12T08:29:25.718Z,2.95
2019-02-12T08:30:25.829Z,3.02
2019-02-12T08:31:25.695Z,3.07
2019-02-12T08:32:25.685Z,3.06
2019-02-12T08:33:25.679Z,3.06
2019-02-12T08:34:25.664Z,3.07
2019-02-12T08:35:25.664Z,3.00
2019-02-12T08:36:25.644Z,2.95
2019-02-12T08:37:25.634Z,3.07
2019-02-12T08:38:25.621Z,3.09
2019-02-12T08:39:25.707Z,3.13
2019-02-12T08:40:25.626Z,3.09
2019-02-12T08:41:25.590Z,3.13
2019-02-12T08:42:25.579Z,3.16
2019-02-12T08:43:25.569Z,3.23
2019-02-12T08:44:25.558Z,3.27
2019-02-12T08:45:25.551Z,3.40
2019-02-12T08:46:25.555Z,3.68
2019-02-12T08:47:25.525Z,3.76
2019-02-12T08:48:25.514Z,3.79
2019-02-12T08:49:25.536Z,3.67
2019-02-12T08:50:25.496Z,3.64
2019-02-12T08:51:25.490Z,3.72
2019-02-12T08:52:25.474Z,3.78
2019-02-12T08:53:25.460Z,3.86
2019-02-12T08:54:25.448Z,4.04
2019-02-12T08:55:25.438Z,4.29
2019-02-12T08:56:25.436Z,4.44
2019-02-12T08:57:25.422Z,4.57
2019-02-12T08:58:25.428Z,4.47
2019-02-12T08:59:25.395Z,4.37
2019-02-12T09:00:25.393Z,4.34
2019-02-12T09:01:25.389Z,4.25
2019-02-12T09:02:25.367Z,4.25
2019-02-12T09:03:25.352Z,4.24
2019-02-12T09:04:25.342Z,4.12
2019-02-12T09:05:25.330Z,4.07
2019-02-12T09:06:25.328Z,4.24
2019-02-12T09:07:25.310Z,4.06
2019-02-12T09:08:25.298Z,3.97
2019-02-12T09:09:25.288Z,3.88
2019-02-12T09:10:25.276Z,3.75
2019-02-12T09:11:25.297Z,3.85
2019-02-12T09:12:26.726Z,3.90
2019-02-12T09:13:25.244Z,3.85
2019-02-12T09:14:25.235Z,3.90
2019-02-12T09:15:25.223Z,3.79
2019-02-12T09:16:25.238Z,3.75
2019-02-12T09:17:25.201Z,3.79
2019-02-12T09:18:25.192Z,3.92
2019-02-12T09:19:25.182Z,3.89
2019-02-12T09:20:25.168Z,4.01
2019-02-12T09:21:25.160Z,4.10
2019-02-12T09:22:25.155Z,4.00
2019-02-12T09:23:25.136Z,4.10
2019-02-12T09:24:25.126Z,4.00
2019-02-12T09:25:25.113Z,3.98
2019-02-12T09:26:25.105Z,4.06
2019-02-12T09:27:25.101Z,4.08
2019-02-12T09:28:25.081Z,4.10
2019-02-12T09:29:25.072Z,4.00
2019-02-12T09:30:25.059Z,4.06
2019-02-12T09:31:25.052Z,4.01
2019-02-12T09:32:25.045Z,4.07
2019-02-12T09:33:25.027Z,4.04
2019-02-12T09:34:25.017Z,4.10
2019-02-12T09:35:25.005Z,4.12
2019-02-12T09:36:24.995Z,4.22
2019-02-12T09:37:24.993Z,4.22
2019-02-12T09:38:24.972Z,4.15
2019-02-12T09:39:24.967Z,4.15
2019-02-12T09:40:24.950Z,4.21
2019-02-12T09:41:24.940Z,4.19
2019-02-12T09:42:24.943Z,4.12
2019-02-12T09:43:24.925Z,4.06
2019-02-12T09:44:24.916Z,4.08
2019-02-12T09:45:24.897Z,4.16
2019-02-12T09:46:24.888Z,4.21
2019-02-12T09:47:24.892Z,4.34
2019-02-12T09:48:24.863Z,4.54
2019-02-12T09:49:24.854Z,4.55
2019-02-12T09:50:24.846Z,4.52
2019-02-12T09:51:24.830Z,4.40
2019-02-12T09:52:24.829Z,4.26
2019-02-12T09:53:24.812Z,4.32
2019-02-12T09:54:24.800Z,4.40
2019-02-12T09:55:24.787Z,4.34
2019-02-12T09:56:24.776Z,4.39
2019-02-12T09:57:24.797Z,4.43
2019-02-12T09:58:24.755Z,4.51
2019-02-12T09:59:24.746Z,4.69
2019-02-12T10:00:24.733Z,4.62
2019-02-12T10:01:24.724Z,4.65
2019-02-12T10:02:24.711Z,4.73
2019-02-12T10:03:24.709Z,4.75
2019-02-12T10:04:24.693Z,4.73
2019-02-12T10:05:24.679Z,4.69
2019-02-12T10:06:24.669Z,4.69
2019-02-12T10:07:24.661Z,4.70
2019-02-12T10:08:24.669Z,4.67
2019-02-12T10:09:24.638Z,4.62
2019-02-12T10:10:24.625Z,4.64
2019-02-12T10:11:24.615Z,4.69
2019-02-12T10:12:24.611Z,4.92
2019-02-12T10:13:24.602Z,4.96
2019-02-12T10:14:24.584Z,4.96
2019-02-12T10:15:24.571Z,5.02
2019-02-12T10:16:24.571Z,5.02
2019-02-12T10:17:24.549Z,5.14
2019-02-12T10:18:24.548Z,5.09
2019-02-12T10:19:24.532Z,5.10
2019-02-12T10:20:24.517Z,5.16
2019-02-12T10:21:24.514Z,5.28
2019-02-12T10:22:24.507Z,5.17
2019-02-12T10:23:24.497Z,5.16
2019-02-12T10:24:24.475Z,5.17
2019-02-12T10:25:24.467Z,5.09
2019-02-12T10:26:24.454Z,5.10
2019-02-12T10:27:24.443Z,5.27
2019-02-12T10:28:24.443Z,5.22
2019-02-12T10:29:24.422Z,5.20
2019-02-12T10:30:24.409Z,5.17
2019-02-12T10:31:24.399Z,5.14
2019-02-12T10:32:24.389Z,5.09
2019-02-12T10:33:24.386Z,4.96
2019-02-12T10:34:24.368Z,4.95
2019-02-12T10:35:24.362Z,5.02
2019-02-12T10:36:24.346Z,5.16
2019-02-12T10:37:24.335Z,5.22
2019-02-12T10:38:24.334Z,5.32
2019-02-12T10:39:24.322Z,5.46
2019-02-12T10:40:24.307Z,5.57
2019-02-12T10:41:24.293Z,5.50
2019-02-12T10:42:24.283Z,5.52
2019-02-12T10:43:24.281Z,5.50
2019-02-12T10:44:24.261Z,5.63
2019-02-12T10:45:25.803Z,5.63
2019-02-12T10:46:24.251Z,5.59
2019-02-12T10:47:24.232Z,5.57
2019-02-12T10:48:24.227Z,5.67
2019-02-12T10:49:24.208Z,5.60
2019-02-12T10:50:24.199Z,5.43
2019-02-12T10:51:24.189Z,5.52
2019-02-12T10:52:24.177Z,5.43
2019-02-12T10:53:24.176Z,5.59
2019-02-12T10:54:27.959Z,5.53
2019-02-12T10:55:24.145Z,5.50
2019-02-12T10:56:24.132Z,5.48
2019-02-12T10:57:24.122Z,5.43
2019-02-12T10:58:24.115Z,5.25
2019-02-12T10:59:24.108Z,5.19
2019-02-12T11:00:24.090Z,5.14
2019-02-12T11:01:24.078Z,5.12
2019-02-12T11:02:24.069Z,5.19
2019-02-12T11:03:24.058Z,5.13
2019-02-12T11:04:24.057Z,5.17
2019-02-12T11:05:24.036Z,5.14
2019-02-12T11:06:24.025Z,5.10
2019-02-12T11:07:24.014Z,5.02
2019-02-12T11:08:24.007Z,5.13
2019-02-12T11:09:24.002Z,5.13
2019-02-12T11:10:23.983Z,5.13
2019-02-12T11:11:23.974Z,5.14
2019-02-12T11:12:23.961Z,5.23
2019-02-12T11:13:23.952Z,5.32
2019-02-12T11:14:23.949Z,5.30
2019-02-12T11:15:23.932Z,5.23
2019-02-12T11:16:23.919Z,5.22
2019-02-12T11:17:23.912Z,5.31
2019-02-12T11:18:23.899Z,5.34
2019-02-12T11:19:23.895Z,5.28
2019-02-12T11:20:23.875Z,5.27
2019-02-12T11:21:23.866Z,5.20
2019-02-12T11:22:23.855Z,5.17
2019-02-12T11:23:23.856Z,5.12
2019-02-12T11:24:23.841Z,5.12
2019-02-12T11:25:23.824Z,5.12
2019-02-12T11:26:23.812Z,5.16
2019-02-12T11:27:23.801Z,5.14
2019-02-12T11:28:23.793Z,5.19
2019-02-12T11:29:23.818Z,5.34
2019-02-12T11:30:23.768Z,5.31
2019-02-12T11:31:23.760Z,5.49
2019-02-12T11:32:23.749Z,5.56
2019-02-12T11:33:23.739Z,5.71
2019-02-12T11:34:23.726Z,5.77
2019-02-12T11:35:23.763Z,5.91
2019-02-12T11:36:23.707Z,6.09
2019-02-12T11:37:23.694Z,6.07
2019-02-12T11:38:23.690Z,6.10
2019-02-12T11:39:23.676Z,6.13
2019-02-12T11:40:23.672Z,6.06
2019-02-12T11:41:23.653Z,6.09
2019-02-12T11:42:23.644Z,6.01
2019-02-12T11:43:23.630Z,5.91
2019-02-12T11:44:23.619Z,5.89
2019-02-12T11:45:23.617Z,5.83
2019-02-12T11:46:23.599Z,5.82
2019-02-12T11:47:23.587Z,5.74
2019-02-12T11:48:23.580Z,5.73
2019-02-12T11:49:23.566Z,5.57
2019-02-12T11:50:23.566Z,5.59
2019-02-12T11:51:23.544Z,5.60
2019-02-12T11:52:23.535Z,5.68
2019-02-12T11:53:23.522Z,5.73
2019-02-12T11:54:23.512Z,5.93
2019-02-12T11:55:23.511Z,5.96
2019-02-12T11:56:23.495Z,5.96
2019-02-12T11:57:23.480Z,5.81
2019-02-12T11:58:23.494Z,5.83
2019-02-12T11:59:23.459Z,5.70
2019-02-12T12:00:23.458Z,5.49
2019-02-12T12:01:23.438Z,5.37
2019-02-12T12:02:23.428Z,5.22
2019-02-12T12:03:23.418Z,5.14
2019-02-12T12:04:23.409Z,5.12
2019-02-12T12:05:23.403Z,5.10
2019-02-12T12:06:23.384Z,5.09
2019-02-12T12:07:23.374Z,5.02
2019-02-12T12:08:23.366Z,5.27
2019-02-12T12:09:23.352Z,5.31
2019-02-12T12:10:23.353Z,5.35
2019-02-12T12:11:23.331Z,5.45
2019-02-12T12:12:23.323Z,5.49
2019-02-12T12:13:23.310Z,5.48
2019-02-12T12:14:23.300Z,5.46
2019-02-12T12:15:23.297Z,5.40
2019-02-12T12:16:23.361Z,5.46
2019-02-12T12:17:23.272Z,5.53
2019-02-12T12:18:23.258Z,5.53
2019-02-12T12:19:23.252Z,5.55
2019-02-12T12:20:23.245Z,5.49
2019-02-12T12:21:23.223Z,5.43
2019-02-12T12:22:23.215Z,5.38
2019-02-12T12:23:23.204Z,5.25
2019-02-12T12:24:23.192Z,5.23
2019-02-12T12:25:23.195Z,5.25
2019-02-12T12:26:23.174Z,5.46
2019-02-12T12:27:23.160Z,5.46
2019-02-12T12:28:23.149Z,5.59
2019-02-12T12:29:23.141Z,5.68
2019-02-12T12:30:23.138Z,5.71
2019-02-12T12:31:23.121Z,5.73
2019-02-12T12:32:23.107Z,5.73
2019-02-12T12:33:23.099Z,5.70
2019-02-12T12:34:23.086Z,5.70
2019-02-12T12:35:23.083Z,5.60
2019-02-12T12:36:23.064Z,5.68
2019-02-12T12:37:23.054Z,5.88
2019-02-12T12:38:23.045Z,5.91
2019-02-12T12:39:23.036Z,6.14
2019-02-12T12:40:23.031Z,6.32
2019-02-12T12:41:23.012Z,6.43
2019-02-12T12:42:23.002Z,6.50
2019-02-12T12:43:22.993Z,6.62
2019-02-12T12:44:22.980Z,6.63
2019-02-12T12:45:22.984Z,6.58
2019-02-12T12:46:22.959Z,6.51
2019-02-12T12:47:22.947Z,6.48
2019-02-12T12:48:22.936Z,6.54
2019-02-12T12:49:22.931Z,6.58
2019-02-12T12:50:22.930Z,6.51
2019-02-12T12:51:22.902Z,6.61
2019-02-12T12:52:22.905Z,6.48
2019-02-12T12:53:22.889Z,6.32
2019-02-12T12:54:22.871Z,6.13
2019-02-12T12:55:22.869Z,6.06
2019-02-12T12:56:22.849Z,6.00
2019-02-12T12:57:22.838Z,5.96
2019-02-12T12:58:22.836Z,5.88
2019-02-12T12:59:22.818Z,5.88
2019-02-12T13:00:22.815Z,5.83
2019-02-12T13:01:22.795Z,5.64
2019-02-12T13:02:22.787Z,5.57
2019-02-12T13:03:22.772Z,5.48
2019-02-12T13:04:22.762Z,5.49
2019-02-12T13:05:23.044Z,5.48
2019-02-12T13:06:22.741Z,5.43
2019-02-12T13:07:22.733Z,5.56
2019-02-12T13:08:22.727Z,5.59
2019-02-12T13:09:22.710Z,5.66
2019-02-12T13:10:22.698Z,5.77
2019-02-12T13:11:22.696Z,5.83
2019-02-12T13:12:22.679Z,5.96
2019-02-12T13:13:22.667Z,6.13
2019-02-12T13:14:22.655Z,6.11
2019-02-12T13:15:22.646Z,6.09
2019-02-12T13:16:22.642Z,6.00
2019-02-12T13:17:22.624Z,5.96
2019-02-12T13:18:22.613Z,5.98